createdAt,value
2019-02-20T00:01:49.124Z,82.53
2019-02-20T00:04:16.804Z,82.36
2019-02-20T00:06:44.203Z,81.80
2019-02-20T00:09:11.481Z,82.55
2019-02-20T00:11:38.603Z,82.52
2019-02-20T00:14:06.114Z,83.12
2019-02-20T00:16:33.984Z,82.81
2019-02-20T00:19:01.896Z,83.22
2019-02-20T00:21:29.619Z,83.43
2019-02-20T00:23:57.281Z,83.68
2019-02-20T00:26:24.414Z,83.39
2019-02-20T00:28:51.671Z,82.98
2019-02-20T00:31:19.244Z,82.39
2019-02-20T00:33:47.271Z,82.14
2019-02-20T00:36:15.120Z,82.65
2019-02-20T00:38:42.250Z,82.13
2019-02-20T00:41:09.746Z,83.02
2019-02-20T00:43:38.919Z,83.91
2019-02-20T00:46:14.453Z,83.83
2019-02-20T00:48:58.728Z,84.12
2019-02-20T00:52:00.822Z,84.00
2019-02-20T00:54:28.503Z,83.95
2019-02-20T00:56:56.123Z,83.73
2019-02-20T00:59:24.202Z,83.71
2019-02-20T01:01:51.665Z,83.15
2019-02-20T01:04:19.652Z,83.49
2019-02-20T01:06:48.044Z,84.39
2019-02-20T01:09:16.298Z,83.72
2019-02-20T01:11:44.162Z,83.61
2019-02-20T01:14:11.674Z,84.34
2019-02-20T01:16:39.043Z,84.41
2019-02-20T01:19:06.730Z,84.54
2019-02-20T01:21:34.165Z,84.49
2019-02-20T01:24:01.581Z,84.96
2019-02-20T01:26:28.712Z,84.55
2019-02-20T01:28:56.412Z,85.02
2019-02-20T01:31:24.299Z,84.98
2019-02-20T01:33:51.865Z,84.46
2019-02-20T01:36:19.420Z,84.26
2019-02-20T01:38:47.526Z,84.89
2019-02-20T01:41:15.345Z,84.43
2019-02-20T01:43:42.635Z,83.61
2019-02-20T01:46:10.698Z,83.02
2019-02-20T01:48:38.496Z,83.65
2019-02-20T01:51:06.242Z,84.06
2019-02-20T01:53:33.873Z,84.03
2019-02-20T01:56:01.340Z,85.19
2019-02-20T01:58:29.622Z,85.03
2019-02-20T02:00:57.224Z,84.82
2019-02-20T02:03:24.358Z,86.03
2019-02-20T02:05:52.543Z,86.22
2019-02-20T02:08:20.184Z,86.10
2019-02-20T02:10:47.816Z,85.62
2019-02-20T02:13:15.331Z,85.93
2019-02-20T02:15:43.655Z,85.26
2019-02-20T02:18:11.394Z,85.26
2019-02-20T02:20:38.632Z,85.70
2019-02-20T02:23:06.626Z,85.55
2019-02-20T02:25:34.341Z,85.81
2019-02-20T02:28:03.342Z,84.92
2019-02-20T02:30:31.247Z,84.78
2019-02-20T02:32:58.763Z,84.81
2019-02-20T02:35:26.049Z,84.62
2019-02-20T02:37:53.291Z,84.48
2019-02-20T02:40:21.113Z,84.77
2019-02-20T02:42:48.289Z,84.87
2019-02-20T02:45:15.918Z,84.89
2019-02-20T02:47:43.203Z,85.63
2019-02-20T02:50:11.407Z,85.84
2019-02-20T02:52:39.057Z,85.32
2019-02-20T02:55:06.483Z,84.93
2019-02-20T02:57:33.859Z,84.82
2019-02-20T03:00:01.600Z,84.67
2019-02-20T03:02:29.273Z,85.52
2019-02-20T03:04:56.891Z,85.88
2019-02-20T03:07:24.462Z,85.33
2019-02-20T03:09:52.073Z,85.18
2019-02-20T03:12:19.215Z,84.73
2019-02-20T03:14:46.799Z,85.37
2019-02-20T03:17:14.486Z,85.43
2019-02-20T03:19:41.900Z,86.66
2019-02-20T03:22:09.688Z,86.19
2019-02-20T03:24:37.099Z,86.18
2019-02-20T03:27:05.207Z,86.45
2019-02-20T03:29:32.811Z,86.72
2019-02-20T03:32:00.489Z,86.20
2019-02-20T03:34:30.779Z,86.23
2019-02-20T03:36:58.082Z,85.80
2019-02-20T03:39:25.773Z,85.86
2019-02-20T03:41:53.332Z,85.59
2019-02-20T03:44:21.402Z,85.39
2019-02-20T03:46:48.822Z,86.19
2019-02-20T03:49:16.720Z,85.55
2019-02-20T03:51:44.081Z,85.46
2019-02-20T03:54:11.811Z,85.74
2019-02-20T03:56:39.472Z,84.87
2019-02-20T03:59:07.061Z,85.52
2019-02-20T04:01:34.449Z,84.97
2019-02-20T04:04:02.821Z,86.35
2019-02-20T04:06:30.349Z,86.70
2019-02-20T04:08:57.878Z,86.63
2019-02-20T04:11:25.708Z,86.07
2019-02-20T04:13:53.587Z,86.60
2019-02-20T04:16:21.389Z,86.39
2019-02-20T04:18:49.745Z,86.42
2019-02-20T04:21:17.010Z,86.34
2019-02-20T04:23:44.846Z,86.14
2019-02-20T04:26:12.759Z,86.41
2019-02-20T04:28:40.366Z,86.37
2019-02-20T04:31:07.810Z,86.60
2019-02-20T04:33:35.773Z,87.01
2019-02-20T04:36:03.199Z,87.03
2019-02-20T04:38:31.440Z,87.01
2019-02-20T04:40:58.947Z,86.83
2019-02-20T04:43:26.791Z,86.03
2019-02-20T04:45:54.909Z,85.70
2019-02-20T04:48:22.338Z,87.38
2019-02-20T04:50:50.247Z,87.81
2019-02-20T04:53:17.778Z,86.95
2019-02-20T04:55:46.200Z,86.31
2019-02-20T04:58:18.573Z,86.41
2019-02-20T05:00:46.423Z,85.83
2019-02-20T05:03:13.901Z,86.72
2019-02-20T05:05:41.781Z,87.23
2019-02-20T05:08:09.305Z,86.59
2019-02-20T05:10:37.535Z,86.88
2019-02-20T05:13:05.285Z,86.45
2019-02-20T05:15:33.637Z,87.57
2019-02-20T05:18:00.811Z,87.27
2019-02-20T05:20:28.090Z,87.12
2019-02-20T05:22:55.792Z,87.12
2019-02-20T05:25:23.230Z,87.29
2019-02-20T05:27:51.095Z,86.79
2019-02-20T05:30:18.704Z,86.76
2019-02-20T05:32:46.694Z,86.56
2019-02-20T05:35:14.766Z,86.99
2019-02-20T05:37:42.707Z,86.78
2019-02-20T05:40:10.645Z,86.04
2019-02-20T05:42:38.639Z,85.80
2019-02-20T05:45:06.804Z,85.96
2019-02-20T05:47:34.215Z,85.78
2019-02-20T05:50:01.597Z,86.52
2019-02-20T05:52:29.252Z,86.08
2019-02-20T05:54:57.369Z,86.34
2019-02-20T05:57:25.016Z,86.99
2019-02-20T05:59:52.700Z,87.59
2019-02-20T06:02:23.478Z,87.25
2019-02-20T06:04:51.603Z,87.20
2019-02-20T06:07:19.859Z,87.12
2019-02-20T06:09:47.031Z,87.39
2019-02-20T06:12:14.508Z,87.41
2019-02-20T06:14:42.399Z,87.37
2019-02-20T06:17:10.061Z,87.50
2019-02-20T06:19:37.603Z,87.62
2019-02-20T06:22:05.669Z,87.45
2019-02-20T06:24:43.649Z,86.91
2019-02-20T06:27:04.152Z,86.01
2019-02-20T06:29:31.394Z,85.81
2019-02-20T06:31:58.715Z,86.38
2019-02-20T06:34:26.867Z,86.55
2019-02-20T06:36:58.629Z,85.55
2019-02-20T06:39:26.254Z,86.13
2019-02-20T06:41:53.823Z,85.96
2019-02-20T06:44:23.710Z,85.95
2019-02-20T06:46:52.126Z,87.55
2019-02-20T06:49:19.787Z,87.49
2019-02-20T06:51:47.077Z,87.61
2019-02-20T06:54:15.019Z,87.94
2019-02-20T06:56:43.160Z,87.94
2019-02-20T06:59:10.635Z,87.49
2019-02-20T07:01:38.118Z,87.51
2019-02-20T07:04:06.567Z,87.10
2019-02-20T07:07:46.602Z,87.36
2019-02-20T07:11:10.593Z,87.47
2019-02-20T07:14:07.002Z,86.93
2019-02-20T07:17:51.776Z,87.74
2019-02-20T07:21:28.680Z,87.04
2019-02-20T07:24:32.178Z,86.38
2019-02-20T07:27:56.541Z,86.09
2019-02-20T07:30:23.916Z,86.66
2019-02-20T07:32:51.158Z,87.21
2019-02-20T07:35:18.606Z,87.40
2019-02-20T07:37:46.067Z,86.99
2019-02-20T07:40:13.442Z,86.02
2019-02-20T07:42:41.298Z,85.41
2019-02-20T07:45:13.962Z,85.69
2019-02-20T07:47:41.272Z,85.21
2019-02-20T07:50:14.649Z,85.44
2019-02-20T07:52:41.934Z,85.54
2019-02-20T07:55:13.157Z,85.74
2019-02-20T07:57:39.074Z,84.82
2019-02-20T08:00:09.420Z,84.11
2019-02-20T08:02:36.976Z,85.50
2019-02-20T08:05:05.194Z,84.70
2019-02-20T08:07:32.814Z,85.00
2019-02-20T08:10:00.422Z,83.71
2019-02-20T08:12:28.018Z,83.53
2019-02-20T08:14:55.685Z,82.02
2019-02-20T08:17:23.704Z,82.80
2019-02-20T08:19:51.272Z,83.60
2019-02-20T08:22:19.762Z,84.92
2019-02-20T08:24:47.362Z,83.16
2019-02-20T08:27:15.496Z,83.67
2019-02-20T08:29:42.925Z,82.40
2019-02-20T08:32:10.543Z,82.98
2019-02-20T08:34:38.661Z,82.98
2019-02-20T08:37:06.926Z,82.95
2019-02-20T08:39:34.973Z,82.16
2019-02-20T08:42:02.627Z,83.34
2019-02-20T08:44:30.287Z,82.46
2019-02-20T08:46:57.704Z,79.70
2019-02-20T08:49:25.709Z,80.52
2019-02-20T08:51:53.564Z,81.47
2019-02-20T08:54:20.951Z,80.42
2019-02-20T08:56:49.179Z,81.07
2019-02-20T08:59:16.863Z,80.94
2019-02-20T09:01:44.475Z,79.79
2019-02-20T09:04:12.234Z,80.17
2019-02-20T09:06:40.279Z,79.15
2019-02-20T09:09:07.966Z,80.21
2019-02-20T09:11:36.086Z,80.71
2019-02-20T09:14:03.484Z,79.31
2019-02-20T09:16:31.111Z,79.19
2019-02-20T09:18:58.396Z,78.62
2019-02-20T09:21:25.978Z,78.12
2019-02-20T09:23:53.487Z,77.63
2019-02-20T09:26:20.850Z,76.08
2019-02-20T09:28:50.631Z,74.85
2019-02-20T09:31:18.392Z,76.58
2019-02-20T09:33:45.802Z,75.65
2019-02-20T09:36:13.113Z,74.51
2019-02-20T09:38:40.618Z,73.69
2019-02-20T09:41:08.526Z,73.20
2019-02-20T09:43:36.326Z,71.89
2019-02-20T09:46:03.821Z,72.41
2019-02-20T09:48:31.602Z,72.11
2019-02-20T09:50:58.763Z,70.36
2019-02-20T09:53:26.424Z,69.56
2019-02-20T09:55:54.245Z,69.76
2019-02-20T09:58:21.892Z,70.62
2019-02-20T10:00:49.946Z,68.70
2019-02-20T10:03:17.141Z,70.91
2019-02-20T10:05:45.114Z,68.81
2019-02-20T10:08:12.840Z,69.58
2019-02-20T10:10:40.427Z,67.75
2019-02-20T10:13:10.933Z,68.32
2019-02-20T10:15:37.779Z,67.56
2019-02-20T10:18:05.431Z,66.12
2019-02-20T10:20:32.690Z,65.98
2019-02-20T10:23:00.529Z,64.81
2019-02-20T10:25:28.276Z,64.12
2019-02-20T10:27:55.572Z,64.70
2019-02-20T10:30:23.342Z,64.16
2019-02-20T10:32:50.695Z,61.73
2019-02-20T10:35:18.171Z,63.65
2019-02-20T10:37:45.656Z,63.09
2019-02-20T10:40:13.132Z,60.18
2019-02-20T10:42:40.844Z,61.01
2019-02-20T10:45:08.435Z,57.40
2019-02-20T10:47:36.684Z,61.10
2019-02-20T10:50:04.989Z,59.77
2019-02-20T10:52:32.457Z,59.04
2019-02-20T10:55:00.233Z,59.99
2019-02-20T10:57:27.585Z,58.04
2019-02-20T10:59:55.698Z,57.93
2019-02-20T11:02:23.712Z,57.13
2019-02-20T11:04:54.611Z,55.87
2019-02-20T11:07:21.727Z,57.46
2019-02-20T11:09:49.553Z,57.05
2019-02-20T11:12:17.100Z,55.45
2019-02-20T11:14:44.983Z,54.33
2019-02-20T11:17:12.510Z,52.35
2019-02-20T11:19:40.578Z,53.64
2019-02-20T11:22:08.816Z,55.74
2019-02-20T11:24:36.893Z,53.81
2019-02-20T11:27:04.683Z,53.17
2019-02-20T11:29:32.872Z,51.89
2019-02-20T11:32:00.380Z,50.20
2019-02-20T11:34:28.127Z,51.46
2019-02-20T11:36:56.250Z,53.92
2019-02-20T11:39:24.393Z,51.07
2019-02-20T11:41:52.397Z,50.74
2019-02-20T11:44:21.269Z,49.77
2019-02-20T11:46:49.169Z,50.61
2019-02-20T11:49:16.340Z,49.43
2019-02-20T11:51:43.901Z,47.14
2019-02-20T11:54:11.514Z,49.39
2019-02-20T11:56:39.565Z,50.37
2019-02-20T11:59:06.871Z,47.38
2019-02-20T12:01:34.317Z,48.65
2019-02-20T12:04:01.738Z,52.68
2019-02-20T12:06:29.688Z,48.72
2019-02-20T12:08:57.485Z,51.60
2019-02-20T12:11:26.148Z,49.44
2019-02-20T12:13:53.309Z,50.88
2019-02-20T12:16:20.578Z,48.03
2019-02-20T12:18:48.093Z,49.11
2019-02-20T12:21:15.795Z,48.39
2019-02-20T12:23:43.727Z,49.47
2019-02-20T12:26:11.446Z,48.56
2019-02-20T12:28:38.693Z,48.40
2019-02-20T12:31:06.843Z,47.15
2019-02-20T12:33:35.234Z,50.24
2019-02-20T12:36:03.547Z,49.85
2019-02-20T12:38:31.739Z,51.80
2019-02-20T12:40:59.755Z,46.94
2019-02-20T12:43:27.608Z,49.45
2019-02-20T12:45:55.503Z,48.42
2019-02-20T12:48:24.403Z,49.73
2019-02-20T12:50:51.506Z,49.96
2019-02-20T12:53:19.408Z,48.52
2019-02-20T12:55:47.395Z,50.32
2019-02-20T12:58:15.424Z,49.38
2019-02-20T13:00:43.765Z,50.20
2019-02-20T13:03:11.444Z,49.79
2019-02-20T13:05:38.861Z,48.36
2019-02-20T13:08:07.109Z,51.25
2019-02-20T13:10:35.109Z,53.29
2019-02-20T13:13:02.822Z,50.76
2019-02-20T13:15:29.950Z,52.42
2019-02-20T13:17:58.147Z,50.00
2019-02-20T13:20:25.549Z,50.36
2019-02-20T13:22:53.462Z,51.17
2019-02-20T13:25:21.209Z,50.47
2019-02-20T13:27:48.767Z,51.20
2019-02-20T13:30:16.532Z,49.00
2019-02-20T13:32:43.762Z,51.18
2019-02-20T13:35:11.653Z,50.02
2019-02-20T13:37:38.919Z,47.62
2019-02-20T13:40:07.197Z,47.08
2019-02-20T13:42:34.733Z,49.43
2019-02-20T13:45:02.604Z,49.47
2019-02-20T13:47:30.221Z,52.52
2019-02-20T13:49:57.474Z,47.58
2019-02-20T13:52:25.163Z,49.45
2019-02-20T13:54:52.548Z,48.26
2019-02-20T13:57:20.464Z,47.42
2019-02-20T13:59:47.603Z,48.30
2019-02-20T14:02:15.187Z,50.75
2019-02-20T14:04:43.066Z,50.04
2019-02-20T14:07:11.708Z,48.55
2019-02-20T14:09:39.264Z,50.57
2019-02-20T14:12:07.232Z,50.72
2019-02-20T14:14:34.838Z,49.42
2019-02-20T14:17:02.599Z,51.62
2019-02-20T14:19:30.405Z,50.21
2019-02-20T14:21:57.679Z,52.72
2019-02-20T14:24:25.263Z,50.28
2019-02-20T14:26:53.176Z,51.51
2019-02-20T14:29:20.693Z,52.29
2019-02-20T14:31:49.651Z,50.86
2019-02-20T14:34:17.180Z,52.21
2019-02-20T14:36:44.742Z,50.23
2019-02-20T14:39:12.567Z,52.71
2019-02-20T14:41:40.137Z,48.31
2019-02-20T14:44:07.422Z,49.95
2019-02-20T14:46:36.303Z,50.85
2019-02-20T14:49:03.903Z,48.95
2019-02-20T14:51:31.781Z,50.01
2019-02-20T14:53:59.624Z,50.05
2019-02-20T14:56:28.039Z,51.43
2019-02-20T14:58:55.321Z,51.60
2019-02-20T15:01:23.049Z,51.62
2019-02-20T15:03:51.037Z,50.60
2019-02-20T15:06:19.109Z,48.66
2019-02-20T15:08:47.040Z,51.03
2019-02-20T15:11:14.333Z,51.31
2019-02-20T15:13:42.163Z,51.89
2019-02-20T15:16:09.698Z,51.63
2019-02-20T15:18:37.325Z,52.49
2019-02-20T15:21:04.978Z,52.43
2019-02-20T15:23:33.116Z,51.36
2019-02-20T15:26:01.129Z,50.41
2019-02-20T15:28:29.191Z,51.96
2019-02-20T15:30:56.748Z,51.45
2019-02-20T15:33:24.937Z,54.04
2019-02-20T15:35:52.700Z,52.86
2019-02-20T15:38:20.675Z,50.97
2019-02-20T15:40:48.759Z,51.46
2019-02-20T15:43:16.918Z,54.06
2019-02-20T15:45:44.290Z,52.76
2019-02-20T15:48:12.139Z,52.13
2019-02-20T15:50:39.420Z,51.04
2019-02-20T15:53:10.283Z,52.43
2019-02-20T15:55:38.745Z,52.17
2019-02-20T15:58:06.315Z,52.48
2019-02-20T16:00:34.457Z,53.89
2019-02-20T16:03:02.174Z,53.12
2019-02-20T16:05:29.849Z,52.72
2019-02-20T16:07:57.905Z,53.33
2019-02-20T16:10:25.470Z,53.36
2019-02-20T16:12:53.546Z,53.76
2019-02-20T16:15:21.464Z,53.91
2019-02-20T16:17:49.499Z,54.32
2019-02-20T16:20:17.164Z,55.24
2019-02-20T16:22:44.730Z,54.56
2019-02-20T16:25:12.846Z,54.57
2019-02-20T16:27:47.104Z,55.00
2019-02-20T16:30:11.631Z,55.13
2019-02-20T16:32:39.331Z,55.45
2019-02-20T16:35:07.834Z,55.00
2019-02-20T16:37:36.874Z,55.23
2019-02-20T16:40:07.201Z,55.44
2019-02-20T16:42:35.088Z,56.15
2019-02-20T16:45:02.970Z,56.01
2019-02-20T16:47:30.831Z,55.99
2019-02-20T16:49:58.250Z,56.21
2019-02-20T16:52:25.833Z,56.19
2019-02-20T16:54:55.106Z,56.41
2019-02-20T16:57:22.831Z,56.32
2019-02-20T16:59:50.686Z,57.14
2019-02-20T17:02:20.356Z,56.94
2019-02-20T17:04:47.890Z,57.36
2019-02-20T17:07:15.354Z,57.08
2019-02-20T17:09:43.853Z,57.33
2019-02-20T17:12:12.418Z,57.84
2019-02-20T17:14:39.946Z,57.53
2019-02-20T17:17:07.660Z,58.14
2019-02-20T17:19:35.466Z,58.13
2019-02-20T17:22:03.065Z,57.87
2019-02-20T17:24:30.715Z,58.88
2019-02-20T17:26:59.341Z,59.20
2019-02-20T17:29:27.027Z,58.53
2019-02-20T17:31:54.991Z,59.23
2019-02-20T17:34:22.343Z,58.76
2019-02-20T17:36:49.992Z,59.18
2019-02-20T17:39:17.992Z,58.79
2019-02-20T17:41:45.674Z,59.90
2019-02-20T17:44:14.041Z,59.83
2019-02-20T17:46:41.610Z,59.57
2019-02-20T17:49:09.166Z,59.98
2019-02-20T17:51:36.842Z,59.92
2019-02-20T17:54:04.227Z,60.57
2019-02-20T17:56:32.075Z,60.24
2019-02-20T17:58:59.832Z,60.18
2019-02-20T18:01:28.063Z,61.05
2019-02-20T18:03:56.081Z,60.67
2019-02-20T18:06:23.703Z,60.91
2019-02-20T18:08:51.413Z,61.58
2019-02-20T18:11:19.898Z,62.23
2019-02-20T18:13:47.181Z,62.00
2019-02-20T18:16:14.752Z,61.83
2019-02-20T18:18:42.384Z,62.86
2019-02-20T18:21:09.926Z,62.31
2019-02-20T18:23:42.983Z,62.43
2019-02-20T18:26:10.708Z,62.62
2019-02-20T18:28:38.483Z,63.22
2019-02-20T18:31:16.086Z,63.54
2019-02-20T18:33:44.745Z,63.52
2019-02-20T18:36:12.210Z,63.62
2019-02-20T18:38:39.616Z,64.27
2019-02-20T18:41:07.358Z,65.21
2019-02-20T18:43:34.940Z,65.84
2019-02-20T18:46:02.518Z,65.90
2019-02-20T18:48:30.134Z,66.08
2019-02-20T18:50:58.375Z,66.07
2019-02-20T18:53:25.822Z,66.46
2019-02-20T18:55:56.150Z,66.81
2019-02-20T18:58:33.544Z,66.86
2019-02-20T19:00:54.204Z,66.74
2019-02-20T19:03:21.490Z,66.98
2019-02-20T19:05:49.032Z,67.42
2019-02-20T19:08:37.674Z,67.38
2019-02-20T19:11:18.731Z,67.56
2019-02-20T19:14:36.647Z,67.91
2019-02-20T19:18:04.827Z,67.93
2019-02-20T19:21:14.048Z,68.82
2019-02-20T19:24:37.251Z,69.24
2019-02-20T19:28:08.564Z,68.96
2019-02-20T19:31:38.589Z,69.32
2019-02-20T19:34:55.273Z,69.50
2019-02-20T19:38:11.329Z,69.96
2019-02-20T19:41:41.761Z,70.43
2019-02-20T19:44:25.618Z,70.96
2019-02-20T19:47:28.557Z,71.14
2019-02-20T19:50:43.872Z,71.76
2019-02-20T19:53:48.220Z,72.01
2019-02-20T19:56:44.104Z,71.57
2019-02-20T20:00:28.087Z,72.00
2019-02-20T20:04:03.899Z,72.99
2019-02-20T20:07:38.420Z,72.32
2019-02-20T20:11:17.077Z,72.64
2019-02-20T20:15:19.224Z,74.09
2019-02-20T20:19:24.544Z,73.50
2019-02-20T20:23:06.326Z,72.29
2019-02-20T20:26:00.775Z,72.50
2019-02-20T20:29:22.849Z,71.09
2019-02-20T20:32:56.497Z,70.99
2019-02-20T20:37:05.155Z,71.19
2019-02-20T20:40:06.872Z,70.71
2019-02-20T20:43:43.834Z,70.11
2019-02-20T20:46:50.505Z,69.50
2019-02-20T20:49:57.868Z,71.95
2019-02-20T20:53:19.787Z,74.07
2019-02-20T20:56:14.898Z,76.16
2019-02-20T20:59:38.891Z,75.99
2019-02-20T21:02:17.027Z,76.07
2019-02-20T21:05:53.689Z,76.66
2019-02-20T21:08:36.799Z,77.10
2019-02-20T21:12:03.131Z,77.80
2019-02-20T21:15:12.917Z,78.64
2019-02-20T21:18:41.992Z,78.25
2019-02-20T21:22:14.340Z,78.26
2019-02-20T21:25:42.724Z,77.29
2019-02-20T21:28:47.713Z,76.55
2019-02-20T21:32:01.031Z,78.53
2019-02-20T21:35:29.275Z,78.67
2019-02-20T21:38:28.963Z,78.71
2019-02-20T21:41:44.355Z,78.69
2019-02-20T21:44:47.666Z,78.50
2019-02-20T21:48:24.965Z,79.65
2019-02-20T21:51:59.535Z,79.50
2019-02-20T21:55:15.580Z,79.45
2019-02-20T21:58:39.760Z,79.90
2019-02-20T22:01:45.755Z,77.52
2019-02-20T22:05:02.618Z,79.70
2019-02-20T22:08:37.776Z,78.20
2019-02-20T22:12:05.211Z,79.70
2019-02-20T22:15:19.965Z,79.36
2019-02-20T22:18:27.857Z,79.61
2019-02-20T22:22:06.934Z,80.05
2019-02-20T22:25:15.787Z,81.18
2019-02-20T22:28:01.653Z,79.85
2019-02-20T22:31:29.099Z,81.31
2019-02-20T22:34:41.876Z,80.46
2019-02-20T22:38:03.607Z,80.47
2019-02-20T22:41:14.927Z,80.92
2019-02-20T22:45:11.011Z,81.80
2019-02-20T22:48:58.186Z,81.42
2019-02-20T22:51:53.194Z,80.25
2019-02-20T22:54:56.070Z,81.24
2019-02-20T22:58:25.055Z,81.75
2019-02-20T23:01:50.542Z,81.61
2019-02-20T23:05:21.357Z,81.34
2019-02-20T23:08:05.905Z,81.32
2019-02-20T23:11:29.398Z,81.84
2019-02-20T23:17:57.263Z,80.01
2019-02-20T23:20:24.955Z,80.84
2019-02-20T23:22:52.663Z,81.37
2019-02-20T23:25:24.170Z,82.36
2019-02-20T23:27:51.828Z,81.65
2019-02-20T23:30:19.514Z,80.22
2019-02-20T23:32:47.430Z,80.70
2019-02-20T23:35:15.527Z,81.12
2019-02-20T23:37:43.232Z,80.89
2019-02-20T23:40:11.470Z,81.87
2019-02-20T23:42:39.630Z,82.05
2019-02-20T23:45:11.297Z,82.20
2019-02-20T23:47:39.678Z,82.31
2019-02-20T23:50:07.656Z,81.47
2019-02-20T23:52:42.381Z,81.38
2019-02-20T23:55:13.072Z,80.71
2019-02-20T23:57:40.751Z,82.01
